sensor_id;sensor_type;location;lat;lon;timestamp;P1;durP1;ratioP1;P2;durP2;ratioP2
66212;SDS011;53015;50.046;8.238;2023-02-01T00:00:15;4.10;;;3.13;;
66212;SDS011;53015;50.046;8.238;2023-02-01T00:02:43;4.38;;;2.85;;
66212;SDS011;53015;50.046;8.238;2023-02-01T00:05:09;4.63;;;2.97;;
66212;SDS011;53015;50.046;8.238;2023-02-01T00:07:35;8.00;;;3.13;;
66212;SDS011;53015;50.046;8.238;2023-02-01T00:10:01;6.15;;;3.10;;
66212;SDS011;53015;50.046;8.238;2023-02-01T00:12:27;4.50;;;2.70;;
66212;SDS011;53015;50.046;8.238;2023-02-01T00:14:52;4.45;;;2.65;;
66212;SDS011;53015;50.046;8.238;2023-02-01T00:17:18;2.72;;;2.30;;
66212;SDS011;53015;50.046;8.238;2023-02-01T00:19:44;3.15;;;2.50;;
66212;SDS011;53015;50.046;8.238;2023-02-01T00:22:09;4.90;;;2.40;;
66212;SDS011;53015;50.046;8.238;2023-02-01T00:24:35;2.90;;;2.10;;
66212;SDS011;53015;50.046;8.238;2023-02-01T00:27:00;4.55;;;2.10;;
66212;SDS011;53015;50.046;8.238;2023-02-01T00:29:26;2.55;;;2.10;;
66212;SDS011;53015;50.046;8.238;2023-02-01T00:31:51;2.53;;;1.98;;
66212;SDS011;53015;50.046;8.238;2023-02-01T00:34:17;2.40;;;2.08;;
66212;SDS011;53015;50.046;8.238;2023-02-01T00:36:44;4.97;;;2.50;;
66212;SDS011;53015;50.046;8.238;2023-02-01T00:39:11;4.13;;;2.25;;
66212;SDS011;53015;50.046;8.238;2023-02-01T00:41:36;3.03;;;2.30;;
66212;SDS011;53015;50.046;8.238;2023-02-01T00:44:02;6.63;;;2.45;;
66212;SDS011;53015;50.046;8.238;2023-02-01T00:46:28;3.17;;;2.50;;
66212;SDS011;53015;50.046;8.238;2023-02-01T00:48:55;3.53;;;3.10;;
66212;SDS011;53015;50.046;8.238;2023-02-01T00:51:21;4.63;;;2.80;;
66212;SDS011;53015;50.046;8.238;2023-02-01T00:53:49;4.35;;;2.85;;
66212;SDS011;53015;50.046;8.238;2023-02-01T00:56:15;4.72;;;3.03;;
66212;SDS011;53015;50.046;8.238;2023-02-01T00:58:41;4.15;;;2.67;;
66212;SDS011;53015;50.046;8.238;2023-02-01T01:01:07;6.28;;;2.90;;
66212;SDS011;53015;50.046;8.238;2023-02-01T01:03:35;4.10;;;2.40;;
66212;SDS011;53015;50.046;8.238;2023-02-01T01:06:03;5.50;;;3.10;;
66212;SDS011;53015;50.046;8.238;2023-02-01T01:08:30;4.55;;;3.15;;
66212;SDS011;53015;50.046;8.238;2023-02-01T01:10:56;6.03;;;3.72;;
66212;SDS011;53015;50.046;8.238;2023-02-01T01:13:22;5.13;;;3.10;;
66212;SDS011;53015;50.046;8.238;2023-02-01T01:15:48;4.55;;;3.05;;
66212;SDS011;53015;50.046;8.238;2023-02-01T01:18:13;5.60;;;3.13;;
66212;SDS011;53015;50.046;8.238;2023-02-01T01:20:39;4.78;;;3.05;;
66212;SDS011;53015;50.046;8.238;2023-02-01T01:23:06;4.25;;;2.92;;
66212;SDS011;53015;50.046;8.238;2023-02-01T01:25:32;5.63;;;2.78;;
66212;SDS011;53015;50.046;8.238;2023-02-01T01:28:02;5.38;;;3.40;;
66212;SDS011;53015;50.046;8.238;2023-02-01T01:30:28;5.80;;;3.13;;
66212;SDS011;53015;50.046;8.238;2023-02-01T01:32:53;5.15;;;2.97;;
66212;SDS011;53015;50.046;8.238;2023-02-01T01:35:19;5.40;;;3.20;;
66212;SDS011;53015;50.046;8.238;2023-02-01T01:37:44;4.13;;;3.35;;
66212;SDS011;53015;50.046;8.238;2023-02-01T01:40:10;5.75;;;3.13;;
66212;SDS011;53015;50.046;8.238;2023-02-01T01:42:36;3.40;;;3.10;;
66212;SDS011;53015;50.046;8.238;2023-02-01T01:45:04;6.55;;;3.80;;
66212;SDS011;53015;50.046;8.238;2023-02-01T01:47:31;6.05;;;3.50;;
66212;SDS011;53015;50.046;8.238;2023-02-01T01:50:00;5.55;;;3.60;;
66212;SDS011;53015;50.046;8.238;2023-02-01T01:52:26;5.30;;;3.53;;
66212;SDS011;53015;50.046;8.238;2023-02-01T01:54:52;5.50;;;3.58;;
66212;SDS011;53015;50.046;8.238;2023-02-01T01:57:20;5.50;;;3.85;;
66212;SDS011;53015;50.046;8.238;2023-02-01T01:59:50;5.90;;;3.92;;
66212;SDS011;53015;50.046;8.238;2023-02-01T02:02:21;6.20;;;3.95;;
66212;SDS011;53015;50.046;8.238;2023-02-01T02:04:47;5.63;;;4.20;;
66212;SDS011;53015;50.046;8.238;2023-02-01T02:07:14;8.38;;;4.05;;
66212;SDS011;53015;50.046;8.238;2023-02-01T02:09:42;8.23;;;4.70;;
66212;SDS011;53015;50.046;8.238;2023-02-01T02:12:08;8.77;;;4.47;;
66212;SDS011;53015;50.046;8.238;2023-02-01T02:14:33;7.10;;;4.70;;
66212;SDS011;53015;50.046;8.238;2023-02-01T02:17:03;10.27;;;4.70;;
66212;SDS011;53015;50.046;8.238;2023-02-01T02:22:45;8.75;;;4.60;;
66212;SDS011;53015;50.046;8.238;2023-02-01T02:25:26;8.18;;;4.55;;
66212;SDS011;53015;50.046;8.238;2023-02-01T02:28:05;6.32;;;4.70;;
66212;SDS011;53015;50.046;8.238;2023-02-01T02:30:59;8.98;;;5.68;;
66212;SDS011;53015;50.046;8.238;2023-02-01T02:33:51;7.57;;;4.95;;
66212;SDS011;53015;50.046;8.238;2023-02-01T02:36:26;8.82;;;5.10;;
66212;SDS011;53015;50.046;8.238;2023-02-01T02:39:03;7.32;;;4.88;;
66212;SDS011;53015;50.046;8.238;2023-02-01T02:41:33;6.55;;;4.95;;
66212;SDS011;53015;50.046;8.238;2023-02-01T02:44:11;11.00;;;5.43;;
66212;SDS011;53015;50.046;8.238;2023-02-01T02:46:44;6.30;;;4.75;;
66212;SDS011;53015;50.046;8.238;2023-02-01T02:49:15;8.48;;;4.75;;
66212;SDS011;53015;50.046;8.238;2023-02-01T02:51:45;6.85;;;4.82;;
66212;SDS011;53015;50.046;8.238;2023-02-01T02:54:15;7.63;;;4.70;;
66212;SDS011;53015;50.046;8.238;2023-02-01T02:56:43;8.20;;;4.63;;
66212;SDS011;53015;50.046;8.238;2023-02-01T02:59:09;7.03;;;4.32;;
66212;SDS011;53015;50.046;8.238;2023-02-01T03:01:38;7.55;;;4.40;;
66212;SDS011;53015;50.046;8.238;2023-02-01T03:04:04;10.57;;;5.60;;
66212;SDS011;53015;50.046;8.238;2023-02-01T03:06:31;6.20;;;4.78;;
66212;SDS011;53015;50.046;8.238;2023-02-01T03:08:58;7.30;;;5.00;;
66212;SDS011;53015;50.046;8.238;2023-02-01T03:11:27;6.90;;;5.13;;
66212;SDS011;53015;50.046;8.238;2023-02-01T03:13:55;7.85;;;4.93;;
66212;SDS011;53015;50.046;8.238;2023-02-01T03:16:22;9.30;;;5.03;;
66212;SDS011;53015;50.046;8.238;2023-02-01T03:18:52;13.23;;;5.70;;
66212;SDS011;53015;50.046;8.238;2023-02-01T03:21:23;8.50;;;5.05;;
66212;SDS011;53015;50.046;8.238;2023-02-01T03:23:52;11.02;;;6.07;;
66212;SDS011;53015;50.046;8.238;2023-02-01T03:26:20;8.32;;;5.05;;
66212;SDS011;53015;50.046;8.238;2023-02-01T03:28:49;8.63;;;4.97;;
66212;SDS011;53015;50.046;8.238;2023-02-01T03:31:19;7.80;;;5.30;;
66212;SDS011;53015;50.046;8.238;2023-02-01T03:33:45;7.82;;;5.50;;
66212;SDS011;53015;50.046;8.238;2023-02-01T03:36:15;6.82;;;4.88;;
66212;SDS011;53015;50.046;8.238;2023-02-01T03:38:46;11.10;;;5.22;;
66212;SDS011;53015;50.046;8.238;2023-02-01T03:41:20;9.93;;;5.30;;
66212;SDS011;53015;50.046;8.238;2023-02-01T03:43:52;8.10;;;5.18;;
66212;SDS011;53015;50.046;8.238;2023-02-01T03:46:22;12.95;;;6.13;;
66212;SDS011;53015;50.046;8.238;2023-02-01T03:48:52;9.95;;;5.50;;
66212;SDS011;53015;50.046;8.238;2023-02-01T03:51:19;8.38;;;5.50;;
66212;SDS011;53015;50.046;8.238;2023-02-01T03:53:46;9.40;;;5.60;;
66212;SDS011;53015;50.046;8.238;2023-02-01T03:56:13;7.35;;;5.32;;
66212;SDS011;53015;50.046;8.238;2023-02-01T03:58:41;9.95;;;5.72;;
66212;SDS011;53015;50.046;8.238;2023-02-01T04:01:06;10.85;;;6.13;;
66212;SDS011;53015;50.046;8.238;2023-02-01T04:03:32;8.82;;;5.18;;
66212;SDS011;53015;50.046;8.238;2023-02-01T04:05:57;9.35;;;5.80;;
66212;SDS011;53015;50.046;8.238;2023-02-01T04:08:23;9.85;;;5.57;;
66212;SDS011;53015;50.046;8.238;2023-02-01T04:10:48;8.48;;;5.38;;
66212;SDS011;53015;50.046;8.238;2023-02-01T04:13:14;7.85;;;5.25;;
66212;SDS011;53015;50.046;8.238;2023-02-01T04:15:40;8.88;;;5.38;;
66212;SDS011;53015;50.046;8.238;2023-02-01T04:18:06;9.35;;;5.38;;
66212;SDS011;53015;50.046;8.238;2023-02-01T04:20:31;9.90;;;5.95;;
66212;SDS011;53015;50.046;8.238;2023-02-01T04:22:57;7.57;;;5.07;;
66212;SDS011;53015;50.046;8.238;2023-02-01T04:25:23;8.32;;;5.10;;
66212;SDS011;53015;50.046;8.238;2023-02-01T04:27:49;7.15;;;5.18;;
66212;SDS011;53015;50.046;8.238;2023-02-01T04:30:15;8.30;;;5.40;;
66212;SDS011;53015;50.046;8.238;2023-02-01T04:32:41;8.45;;;5.82;;
66212;SDS011;53015;50.046;8.238;2023-02-01T04:35:07;7.63;;;4.80;;
66212;SDS011;53015;50.046;8.238;2023-02-01T04:37:33;7.93;;;4.82;;
66212;SDS011;53015;50.046;8.238;2023-02-01T04:39:59;9.75;;;4.88;;
66212;SDS011;53015;50.046;8.238;2023-02-01T04:42:25;10.90;;;4.97;;
66212;SDS011;53015;50.046;8.238;2023-02-01T04:44:51;6.28;;;4.50;;
66212;SDS011;53015;50.046;8.238;2023-02-01T04:47:16;9.90;;;4.78;;
66212;SDS011;53015;50.046;8.238;2023-02-01T04:49:42;6.70;;;4.30;;
66212;SDS011;53015;50.046;8.238;2023-02-01T04:52:08;9.23;;;4.88;;
66212;SDS011;53015;50.046;8.238;2023-02-01T04:54:34;7.75;;;4.75;;
66212;SDS011;53015;50.046;8.238;2023-02-01T04:56:59;8.50;;;4.18;;
66212;SDS011;53015;50.046;8.238;2023-02-01T04:59:25;7.75;;;3.90;;
66212;SDS011;53015;50.046;8.238;2023-02-01T05:01:50;6.93;;;4.20;;
66212;SDS011;53015;50.046;8.238;2023-02-01T05:04:16;5.43;;;3.70;;
66212;SDS011;53015;50.046;8.238;2023-02-01T05:06:42;7.78;;;4.13;;
66212;SDS011;53015;50.046;8.238;2023-02-01T05:09:07;6.75;;;3.63;;
66212;SDS011;53015;50.046;8.238;2023-02-01T05:11:33;6.70;;;3.72;;
66212;SDS011;53015;50.046;8.238;2023-02-01T05:13:59;6.53;;;3.70;;
66212;SDS011;53015;50.046;8.238;2023-02-01T05:16:25;6.07;;;3.50;;
66212;SDS011;53015;50.046;8.238;2023-02-01T05:18:51;7.05;;;3.45;;
66212;SDS011;53015;50.046;8.238;2023-02-01T05:21:17;6.30;;;3.30;;
66212;SDS011;53015;50.046;8.238;2023-02-01T05:23:43;6.70;;;3.15;;
66212;SDS011;53015;50.046;8.238;2023-02-01T05:26:08;5.55;;;3.15;;
66212;SDS011;53015;50.046;8.238;2023-02-01T05:28:34;5.10;;;2.95;;
66212;SDS011;53015;50.046;8.238;2023-02-01T05:31:00;5.03;;;3.00;;
66212;SDS011;53015;50.046;8.238;2023-02-01T05:33:25;6.55;;;3.17;;
66212;SDS011;53015;50.046;8.238;2023-02-01T05:35:50;8.13;;;3.00;;
66212;SDS011;53015;50.046;8.238;2023-02-01T05:38:16;12.00;;;3.58;;
66212;SDS011;53015;50.046;8.238;2023-02-01T05:40:42;11.63;;;3.70;;
66212;SDS011;53015;50.046;8.238;2023-02-01T05:43:08;9.60;;;3.25;;
66212;SDS011;53015;50.046;8.238;2023-02-01T05:45:33;8.20;;;2.60;;
66212;SDS011;53015;50.046;8.238;2023-02-01T05:47:59;6.72;;;2.70;;
66212;SDS011;53015;50.046;8.238;2023-02-01T05:50:24;7.00;;;2.28;;
66212;SDS011;53015;50.046;8.238;2023-02-01T05:52:50;5.00;;;2.45;;
66212;SDS011;53015;50.046;8.238;2023-02-01T05:55:15;8.98;;;2.33;;
66212;SDS011;53015;50.046;8.238;2023-02-01T05:57:41;5.28;;;2.20;;
66212;SDS011;53015;50.046;8.238;2023-02-01T06:00:08;6.32;;;2.42;;
66212;SDS011;53015;50.046;8.238;2023-02-01T06:02:35;10.30;;;2.38;;
66212;SDS011;53015;50.046;8.238;2023-02-01T06:05:01;5.63;;;2.30;;
66212;SDS011;53015;50.046;8.238;2023-02-01T06:07:26;4.20;;;1.90;;
66212;SDS011;53015;50.046;8.238;2023-02-01T06:09:52;5.70;;;2.45;;
66212;SDS011;53015;50.046;8.238;2023-02-01T06:12:17;7.50;;;2.30;;
66212;SDS011;53015;50.046;8.238;2023-02-01T06:14:44;7.22;;;2.50;;
66212;SDS011;53015;50.046;8.238;2023-02-01T06:17:09;8.18;;;2.28;;
66212;SDS011;53015;50.046;8.238;2023-02-01T06:19:35;11.98;;;3.45;;
66212;SDS011;53015;50.046;8.238;2023-02-01T06:22:00;7.97;;;2.67;;
66212;SDS011;53015;50.046;8.238;2023-02-01T06:24:26;9.25;;;2.65;;
66212;SDS011;53015;50.046;8.238;2023-02-01T06:26:51;6.47;;;2.30;;
66212;SDS011;53015;50.046;8.238;2023-02-01T06:29:17;4.78;;;2.40;;
66212;SDS011;53015;50.046;8.238;2023-02-01T06:31:43;6.07;;;2.55;;
66212;SDS011;53015;50.046;8.238;2023-02-01T06:34:08;6.45;;;2.30;;
66212;SDS011;53015;50.046;8.238;2023-02-01T06:36:34;8.65;;;2.40;;
66212;SDS011;53015;50.046;8.238;2023-02-01T06:38:59;7.97;;;2.22;;
66212;SDS011;53015;50.046;8.238;2023-02-01T06:41:25;7.18;;;2.05;;
66212;SDS011;53015;50.046;8.238;2023-02-01T06:43:50;8.68;;;2.17;;
66212;SDS011;53015;50.046;8.238;2023-02-01T06:46:16;7.18;;;2.30;;
66212;SDS011;53015;50.046;8.238;2023-02-01T06:48:42;10.43;;;2.75;;
66212;SDS011;53015;50.046;8.238;2023-02-01T06:51:16;6.82;;;2.03;;
66212;SDS011;53015;50.046;8.238;2023-02-01T06:53:44;9.38;;;2.58;;
66212;SDS011;53015;50.046;8.238;2023-02-01T06:56:09;7.90;;;2.63;;
66212;SDS011;53015;50.046;8.238;2023-02-01T06:58:35;9.70;;;2.20;;
66212;SDS011;53015;50.046;8.238;2023-02-01T07:01:04;10.00;;;2.30;;
66212;SDS011;53015;50.046;8.238;2023-02-01T07:03:30;8.90;;;2.05;;
66212;SDS011;53015;50.046;8.238;2023-02-01T07:05:57;11.32;;;2.50;;
66212;SDS011;53015;50.046;8.238;2023-02-01T07:08:23;7.57;;;2.08;;
66212;SDS011;53015;50.046;8.238;2023-02-01T07:10:48;9.38;;;2.28;;
66212;SDS011;53015;50.046;8.238;2023-02-01T07:13:14;7.38;;;1.90;;
66212;SDS011;53015;50.046;8.238;2023-02-01T07:15:39;14.10;;;5.30;;
66212;SDS011;53015;50.046;8.238;2023-02-01T07:18:05;23.10;;;11.35;;
66212;SDS011;53015;50.046;8.238;2023-02-01T07:20:30;11.02;;;4.57;;
66212;SDS011;53015;50.046;8.238;2023-02-01T07:22:56;11.15;;;2.90;;
66212;SDS011;53015;50.046;8.238;2023-02-01T07:25:22;5.63;;;2.20;;
66212;SDS011;53015;50.046;8.238;2023-02-01T07:27:48;9.23;;;2.15;;
66212;SDS011;53015;50.046;8.238;2023-02-01T07:30:13;10.55;;;2.47;;
66212;SDS011;53015;50.046;8.238;2023-02-01T07:32:39;13.25;;;2.50;;
66212;SDS011;53015;50.046;8.238;2023-02-01T07:35:05;7.90;;;2.30;;
66212;SDS011;53015;50.046;8.238;2023-02-01T07:37:30;5.82;;;1.92;;
66212;SDS011;53015;50.046;8.238;2023-02-01T07:39:57;11.07;;;2.22;;
66212;SDS011;53015;50.046;8.238;2023-02-01T07:42:22;8.90;;;2.13;;
66212;SDS011;53015;50.046;8.238;2023-02-01T07:44:47;13.82;;;2.08;;
66212;SDS011;53015;50.046;8.238;2023-02-01T07:47:13;12.70;;;2.92;;
66212;SDS011;53015;50.046;8.238;2023-02-01T07:49:38;15.55;;;2.20;;
66212;SDS011;53015;50.046;8.238;2023-02-01T07:52:04;10.02;;;1.98;;
66212;SDS011;53015;50.046;8.238;2023-02-01T07:54:30;14.88;;;2.35;;
66212;SDS011;53015;50.046;8.238;2023-02-01T07:56:56;11.25;;;2.45;;
66212;SDS011;53015;50.046;8.238;2023-02-01T07:59:21;8.23;;;1.95;;
66212;SDS011;53015;50.046;8.238;2023-02-01T08:01:47;11.30;;;2.38;;
66212;SDS011;53015;50.046;8.238;2023-02-01T08:04:12;11.98;;;2.42;;
66212;SDS011;53015;50.046;8.238;2023-02-01T08:06:39;12.85;;;2.38;;
66212;SDS011;53015;50.046;8.238;2023-02-01T08:09:05;9.93;;;1.95;;
66212;SDS011;53015;50.046;8.238;2023-02-01T08:11:31;10.38;;;2.30;;
66212;SDS011;53015;50.046;8.238;2023-02-01T08:13:58;12.60;;;2.42;;
66212;SDS011;53015;50.046;8.238;2023-02-01T08:16:23;7.43;;;2.03;;
66212;SDS011;53015;50.046;8.238;2023-02-01T08:18:49;12.63;;;2.10;;
66212;SDS011;53015;50.046;8.238;2023-02-01T08:21:16;12.65;;;2.72;;
66212;SDS011;53015;50.046;8.238;2023-02-01T08:23:43;9.98;;;2.17;;
66212;SDS011;53015;50.046;8.238;2023-02-01T08:26:10;18.00;;;2.50;;
66212;SDS011;53015;50.046;8.238;2023-02-01T08:28:36;8.43;;;2.10;;
66212;SDS011;53015;50.046;8.238;2023-02-01T08:31:06;10.18;;;2.00;;
66212;SDS011;53015;50.046;8.238;2023-02-01T08:33:33;10.80;;;1.80;;
66212;SDS011;53015;50.046;8.238;2023-02-01T08:36:00;8.50;;;1.90;;
66212;SDS011;53015;50.046;8.238;2023-02-01T08:38:26;10.60;;;1.90;;
66212;SDS011;53015;50.046;8.238;2023-02-01T08:40:51;11.40;;;2.05;;
66212;SDS011;53015;50.046;8.238;2023-02-01T08:43:18;11.52;;;1.70;;
66212;SDS011;53015;50.046;8.238;2023-02-01T08:45:43;8.65;;;1.92;;
66212;SDS011;53015;50.046;8.238;2023-02-01T08:48:10;11.05;;;2.03;;
66212;SDS011;53015;50.046;8.238;2023-02-01T08:50:35;10.15;;;2.15;;
66212;SDS011;53015;50.046;8.238;2023-02-01T08:53:01;11.55;;;2.70;;
66212;SDS011;53015;50.046;8.238;2023-02-01T08:55:26;11.40;;;2.30;;
66212;SDS011;53015;50.046;8.238;2023-02-01T08:57:52;10.18;;;1.63;;
66212;SDS011;53015;50.046;8.238;2023-02-01T09:00:17;9.55;;;2.20;;
66212;SDS011;53015;50.046;8.238;2023-02-01T09:02:43;9.40;;;1.85;;
66212;SDS011;53015;50.046;8.238;2023-02-01T09:05:11;9.23;;;2.00;;
66212;SDS011;53015;50.046;8.238;2023-02-01T09:07:36;10.80;;;1.77;;
66212;SDS011;53015;50.046;8.238;2023-02-01T09:10:02;9.60;;;1.83;;
66212;SDS011;53015;50.046;8.238;2023-02-01T09:12:30;13.05;;;2.72;;
66212;SDS011;53015;50.046;8.238;2023-02-01T09:14:57;13.07;;;2.00;;
66212;SDS011;53015;50.046;8.238;2023-02-01T09:17:23;14.77;;;1.98;;
66212;SDS011;53015;50.046;8.238;2023-02-01T09:19:49;10.70;;;2.00;;
66212;SDS011;53015;50.046;8.238;2023-02-01T09:22:15;5.88;;;1.77;;
66212;SDS011;53015;50.046;8.238;2023-02-01T09:24:40;9.50;;;1.90;;
66212;SDS011;53015;50.046;8.238;2023-02-01T09:27:06;7.13;;;1.80;;
66212;SDS011;53015;50.046;8.238;2023-02-01T09:29:32;11.38;;;2.30;;
66212;SDS011;53015;50.046;8.238;2023-02-01T09:31:57;7.93;;;1.80;;
66212;SDS011;53015;50.046;8.238;2023-02-01T09:34:23;13.82;;;2.00;;
66212;SDS011;53015;50.046;8.238;2023-02-01T09:36:49;10.63;;;2.05;;
66212;SDS011;53015;50.046;8.238;2023-02-01T09:39:15;7.55;;;1.58;;
66212;SDS011;53015;50.046;8.238;2023-02-01T09:41:47;8.65;;;1.90;;
66212;SDS011;53015;50.046;8.238;2023-02-01T09:44:27;11.05;;;2.22;;
66212;SDS011;53015;50.046;8.238;2023-02-01T09:47:03;9.38;;;1.70;;
66212;SDS011;53015;50.046;8.238;2023-02-01T09:49:30;7.32;;;1.58;;
66212;SDS011;53015;50.046;8.238;2023-02-01T09:51:59;12.88;;;1.67;;
66212;SDS011;53015;50.046;8.238;2023-02-01T09:54:28;9.10;;;1.75;;
66212;SDS011;53015;50.046;8.238;2023-02-01T09:57:03;11.75;;;2.28;;
66212;SDS011;53015;50.046;8.238;2023-02-01T09:59:34;6.50;;;1.92;;
66212;SDS011;53015;50.046;8.238;2023-02-01T10:02:08;11.00;;;1.73;;
66212;SDS011;53015;50.046;8.238;2023-02-01T10:04:37;9.68;;;1.73;;
66212;SDS011;53015;50.046;8.238;2023-02-01T10:07:06;9.35;;;2.20;;
66212;SDS011;53015;50.046;8.238;2023-02-01T10:09:50;6.32;;;2.03;;
66212;SDS011;53015;50.046;8.238;2023-02-01T10:12:29;6.35;;;1.52;;
66212;SDS011;53015;50.046;8.238;2023-02-01T10:15:11;8.93;;;1.80;;
66212;SDS011;53015;50.046;8.238;2023-02-01T10:17:48;11.23;;;1.90;;
66212;SDS011;53015;50.046;8.238;2023-02-01T10:20:25;6.00;;;1.60;;
66212;SDS011;53015;50.046;8.238;2023-02-01T10:22:58;6.15;;;1.60;;
66212;SDS011;53015;50.046;8.238;2023-02-01T10:25:36;10.07;;;1.70;;
66212;SDS011;53015;50.046;8.238;2023-02-01T10:28:06;10.20;;;1.95;;
66212;SDS011;53015;50.046;8.238;2023-02-01T10:33:12;10.40;;;2.10;;
66212;SDS011;53015;50.046;8.238;2023-02-01T10:38:11;9.82;;;1.80;;
66212;SDS011;53015;50.046;8.238;2023-02-01T10:43:08;8.10;;;1.75;;
66212;SDS011;53015;50.046;8.238;2023-02-01T10:45:34;8.32;;;1.77;;
66212;SDS011;53015;50.046;8.238;2023-02-01T10:48:02;12.57;;;2.00;;
66212;SDS011;53015;50.046;8.238;2023-02-01T10:50:31;9.25;;;1.65;;
66212;SDS011;53015;50.046;8.238;2023-02-01T10:53:01;10.60;;;2.17;;
66212;SDS011;53015;50.046;8.238;2023-02-01T10:55:35;12.95;;;2.35;;
66212;SDS011;53015;50.046;8.238;2023-02-01T10:58:05;13.57;;;2.20;;
66212;SDS011;53015;50.046;8.238;2023-02-01T11:00:38;13.10;;;1.85;;
66212;SDS011;53015;50.046;8.238;2023-02-01T11:06:11;7.95;;;1.65;;
66212;SDS011;53015;50.046;8.238;2023-02-01T11:08:43;9.07;;;2.47;;
66212;SDS011;53015;50.046;8.238;2023-02-01T11:11:11;9.00;;;1.50;;
66212;SDS011;53015;50.046;8.238;2023-02-01T11:13:38;14.85;;;2.38;;
66212;SDS011;53015;50.046;8.238;2023-02-01T11:16:06;18.38;;;2.45;;
66212;SDS011;53015;50.046;8.238;2023-02-01T11:18:36;11.80;;;2.50;;
66212;SDS011;53015;50.046;8.238;2023-02-01T11:21:03;12.43;;;1.90;;
66212;SDS011;53015;50.046;8.238;2023-02-01T11:23:30;10.27;;;1.60;;
66212;SDS011;53015;50.046;8.238;2023-02-01T11:25:59;9.48;;;1.98;;
66212;SDS011;53015;50.046;8.238;2023-02-01T11:28:26;8.88;;;1.77;;
66212;SDS011;53015;50.046;8.238;2023-02-01T11:30:56;11.95;;;1.70;;
66212;SDS011;53015;50.046;8.238;2023-02-01T11:33:24;9.30;;;1.52;;
66212;SDS011;53015;50.046;8.238;2023-02-01T11:35:54;10.60;;;1.67;;
66212;SDS011;53015;50.046;8.238;2023-02-01T11:38:21;8.77;;;1.98;;
66212;SDS011;53015;50.046;8.238;2023-02-01T11:40:51;7.82;;;1.80;;
66212;SDS011;53015;50.046;8.238;2023-02-01T11:43:18;12.43;;;2.10;;
66212;SDS011;53015;50.046;8.238;2023-02-01T11:45:56;7.40;;;1.52;;
66212;SDS011;53015;50.046;8.238;2023-02-01T11:48:24;10.10;;;2.00;;
66212;SDS011;53015;50.046;8.238;2023-02-01T11:50:52;9.45;;;1.92;;
66212;SDS011;53015;50.046;8.238;2023-02-01T11:53:31;11.75;;;1.85;;
66212;SDS011;53015;50.046;8.238;2023-02-01T11:56:09;12.30;;;1.58;;
66212;SDS011;53015;50.046;8.238;2023-02-01T11:58:50;11.85;;;2.38;;
66212;SDS011;53015;50.046;8.238;2023-02-01T12:01:36;12.35;;;1.90;;
66212;SDS011;53015;50.046;8.238;2023-02-01T12:04:23;13.05;;;1.45;;
66212;SDS011;53015;50.046;8.238;2023-02-01T12:07:32;6.45;;;1.63;;
66212;SDS011;53015;50.046;8.238;2023-02-01T12:10:17;10.35;;;1.50;;
66212;SDS011;53015;50.046;8.238;2023-02-01T12:12:52;10.80;;;2.33;;
66212;SDS011;53015;50.046;8.238;2023-02-01T12:15:27;12.18;;;2.28;;
66212;SDS011;53015;50.046;8.238;2023-02-01T12:18:10;8.90;;;1.77;;
66212;SDS011;53015;50.046;8.238;2023-02-01T12:21:03;13.70;;;2.50;;
66212;SDS011;53015;50.046;8.238;2023-02-01T12:23:44;9.77;;;1.88;;
66212;SDS011;53015;50.046;8.238;2023-02-01T12:26:25;10.82;;;1.75;;
66212;SDS011;53015;50.046;8.238;2023-02-01T12:29:07;10.23;;;1.70;;
66212;SDS011;53015;50.046;8.238;2023-02-01T12:31:44;11.20;;;1.85;;
66212;SDS011;53015;50.046;8.238;2023-02-01T12:34:21;10.02;;;1.60;;
66212;SDS011;53015;50.046;8.238;2023-02-01T12:37:01;8.32;;;1.50;;
66212;SDS011;53015;50.046;8.238;2023-02-01T12:39:38;12.00;;;2.47;;
66212;SDS011;53015;50.046;8.238;2023-02-01T12:42:08;6.45;;;1.42;;
66212;SDS011;53015;50.046;8.238;2023-02-01T12:44:39;6.18;;;1.63;;
66212;SDS011;53015;50.046;8.238;2023-02-01T12:47:12;13.02;;;2.80;;
66212;SDS011;53015;50.046;8.238;2023-02-01T12:49:46;12.18;;;1.88;;
66212;SDS011;53015;50.046;8.238;2023-02-01T12:52:18;12.77;;;1.73;;
66212;SDS011;53015;50.046;8.238;2023-02-01T12:54:48;10.38;;;1.88;;
66212;SDS011;53015;50.046;8.238;2023-02-01T12:57:22;8.95;;;1.88;;
66212;SDS011;53015;50.046;8.238;2023-02-01T12:59:52;12.85;;;2.00;;
66212;SDS011;53015;50.046;8.238;2023-02-01T13:02:22;15.40;;;2.20;;
66212;SDS011;53015;50.046;8.238;2023-02-01T13:05:01;7.63;;;1.92;;
66212;SDS011;53015;50.046;8.238;2023-02-01T13:07:32;5.57;;;1.33;;
66212;SDS011;53015;50.046;8.238;2023-02-01T13:10:05;9.13;;;1.58;;
66212;SDS011;53015;50.046;8.238;2023-02-01T13:12:38;9.82;;;2.05;;
66212;SDS011;53015;50.046;8.238;2023-02-01T13:15:12;10.90;;;2.33;;
66212;SDS011;53015;50.046;8.238;2023-02-01T13:17:42;12.25;;;1.90;;
66212;SDS011;53015;50.046;8.238;2023-02-01T13:20:18;11.57;;;2.17;;
66212;SDS011;53015;50.046;8.238;2023-02-01T13:22:48;9.93;;;1.48;;
66212;SDS011;53015;50.046;8.238;2023-02-01T13:25:20;9.50;;;1.65;;
66212;SDS011;53015;50.046;8.238;2023-02-01T13:27:54;8.35;;;1.60;;
66212;SDS011;53015;50.046;8.238;2023-02-01T13:30:22;10.82;;;1.80;;
66212;SDS011;53015;50.046;8.238;2023-02-01T13:33:01;12.20;;;2.08;;
66212;SDS011;53015;50.046;8.238;2023-02-01T13:35:46;12.95;;;1.60;;
66212;SDS011;53015;50.046;8.238;2023-02-01T13:38:38;7.53;;;1.45;;
66212;SDS011;53015;50.046;8.238;2023-02-01T13:41:24;6.50;;;1.35;;
66212;SDS011;53015;50.046;8.238;2023-02-01T13:43:52;8.52;;;2.03;;
66212;SDS011;53015;50.046;8.238;2023-02-01T13:46:20;6.97;;;1.52;;
66212;SDS011;53015;50.046;8.238;2023-02-01T13:48:47;11.15;;;2.03;;
66212;SDS011;53015;50.046;8.238;2023-02-01T13:51:16;7.88;;;1.25;;
66212;SDS011;53015;50.046;8.238;2023-02-01T13:53:53;6.07;;;1.60;;
66212;SDS011;53015;50.046;8.238;2023-02-01T13:56:19;7.05;;;1.40;;
66212;SDS011;53015;50.046;8.238;2023-02-01T13:58:47;7.68;;;1.52;;
66212;SDS011;53015;50.046;8.238;2023-02-01T14:04:00;8.52;;;1.33;;
66212;SDS011;53015;50.046;8.238;2023-02-01T14:06:41;8.13;;;1.35;;
66212;SDS011;53015;50.046;8.238;2023-02-01T14:09:16;8.68;;;1.45;;
66212;SDS011;53015;50.046;8.238;2023-02-01T14:11:44;7.45;;;1.65;;
66212;SDS011;53015;50.046;8.238;2023-02-01T14:23:12;11.15;;;1.73;;
66212;SDS011;53015;50.046;8.238;2023-02-01T14:25:40;7.90;;;1.17;;
66212;SDS011;53015;50.046;8.238;2023-02-01T14:28:10;9.43;;;2.08;;
66212;SDS011;53015;50.046;8.238;2023-02-01T14:30:36;13.00;;;2.03;;
66212;SDS011;53015;50.046;8.238;2023-02-01T14:33:10;8.68;;;1.55;;
66212;SDS011;53015;50.046;8.238;2023-02-01T14:35:43;11.73;;;1.10;;
66212;SDS011;53015;50.046;8.238;2023-02-01T14:38:25;10.15;;;1.55;;
66212;SDS011;53015;50.046;8.238;2023-02-01T14:40:51;5.50;;;1.40;;
66212;SDS011;53015;50.046;8.238;2023-02-01T14:43:17;9.05;;;1.27;;
66212;SDS011;53015;50.046;8.238;2023-02-01T14:46:03;6.75;;;1.25;;
66212;SDS011;53015;50.046;8.238;2023-02-01T14:48:42;7.20;;;1.40;;
66212;SDS011;53015;50.046;8.238;2023-02-01T14:51:10;7.13;;;1.45;;
66212;SDS011;53015;50.046;8.238;2023-02-01T14:53:39;9.90;;;1.20;;
66212;SDS011;53015;50.046;8.238;2023-02-01T14:56:08;9.18;;;1.70;;
66212;SDS011;53015;50.046;8.238;2023-02-01T14:58:39;5.82;;;1.23;;
66212;SDS011;53015;50.046;8.238;2023-02-01T15:01:15;8.07;;;1.33;;
66212;SDS011;53015;50.046;8.238;2023-02-01T15:03:45;12.30;;;1.90;;
66212;SDS011;53015;50.046;8.238;2023-02-01T15:06:26;8.57;;;1.60;;
66212;SDS011;53015;50.046;8.238;2023-02-01T15:08:57;7.78;;;1.50;;
66212;SDS011;53015;50.046;8.238;2023-02-01T15:11:27;8.25;;;1.48;;
66212;SDS011;53015;50.046;8.238;2023-02-01T15:13:53;10.85;;;1.52;;
66212;SDS011;53015;50.046;8.238;2023-02-01T15:16:19;5.70;;;1.20;;
66212;SDS011;53015;50.046;8.238;2023-02-01T15:18:46;9.63;;;1.40;;